createdAt,value
2023-04-14T00:00:54.260Z,7.53
2023-04-14T00:03:22.188Z,9.05
2023-04-14T00:05:50.223Z,7.68
2023-04-14T00:08:18.027Z,6.97
2023-04-14T00:10:45.781Z,9.02
2023-04-14T00:13:13.694Z,8.88
2023-04-14T00:15:42.856Z,7.15
2023-04-14T00:18:10.748Z,6.80
2023-04-14T00:20:38.590Z,10.27
2023-04-14T00:23:06.401Z,8.18
2023-04-14T00:25:34.157Z,9.50
2023-04-14T00:28:01.971Z,5.05
2023-04-14T00:30:30.079Z,8.63
2023-04-14T00:32:59.258Z,5.68
2023-04-14T00:35:27.150Z,8.48
2023-04-14T00:37:56.638Z,7.22
2023-04-14T00:40:24.335Z,9.50
2023-04-14T00:42:52.255Z,12.05
2023-04-14T00:45:20.371Z,10.55
2023-04-14T00:47:50.639Z,7.72
2023-04-14T00:50:21.841Z,9.23
2023-04-14T00:52:51.215Z,6.50
2023-04-14T00:55:21.190Z,10.15
2023-04-14T00:57:49.756Z,6.38
2023-04-14T01:00:18.490Z,8.52
2023-04-14T01:02:46.706Z,9.27
2023-04-14T01:05:14.717Z,8.32
2023-04-14T01:07:44.185Z,8.35
2023-04-14T01:10:13.099Z,8.90
2023-04-14T01:13:01.052Z,9.52
2023-04-14T01:15:35.650Z,8.27
2023-04-14T01:18:11.745Z,9.38
2023-04-14T01:20:44.738Z,10.68
2023-04-14T01:23:22.042Z,8.93
2023-04-14T01:26:21.642Z,9.15
2023-04-14T01:29:32.296Z,11.38
2023-04-14T01:32:06.123Z,9.75
2023-04-14T01:34:38.878Z,8.10
2023-04-14T01:37:09.515Z,11.90
2023-04-14T01:39:42.000Z,10.15
2023-04-14T01:44:41.648Z,8.13
2023-04-14T01:47:14.526Z,11.52
2023-04-14T01:49:44.991Z,11.77
2023-04-14T01:52:16.404Z,8.60
2023-04-14T01:54:45.879Z,10.77
2023-04-14T01:57:16.660Z,9.15
2023-04-14T01:59:46.119Z,9.30
2023-04-14T02:02:18.717Z,11.05
2023-04-14T02:04:47.587Z,14.95
2023-04-14T02:07:16.780Z,11.65
2023-04-14T02:09:46.208Z,9.60
2023-04-14T02:12:14.076Z,10.57
2023-04-14T02:14:43.259Z,14.18
2023-04-14T02:17:12.742Z,14.30
2023-04-14T02:19:45.076Z,10.20
2023-04-14T02:22:13.123Z,11.73
2023-04-14T02:24:40.934Z,13.50
2023-04-14T02:27:12.904Z,12.75
2023-04-14T02:29:43.723Z,13.60
2023-04-14T02:32:18.616Z,12.40
2023-04-14T02:34:53.433Z,13.02
2023-04-14T02:37:26.610Z,12.65
2023-04-14T02:40:00.229Z,14.57
2023-04-14T02:42:29.741Z,14.55
2023-04-14T02:45:03.518Z,14.00
2023-04-14T02:47:35.398Z,13.52
2023-04-14T02:50:07.492Z,14.82
2023-04-14T02:52:36.122Z,14.30
2023-04-14T02:55:05.464Z,12.63
2023-04-14T02:57:35.125Z,10.55
2023-04-14T03:00:03.814Z,12.98
2023-04-14T03:02:32.717Z,13.27
2023-04-14T03:05:01.406Z,14.57
2023-04-14T03:07:32.628Z,9.85
2023-04-14T03:10:01.444Z,13.20
2023-04-14T03:12:30.546Z,14.90
2023-04-14T03:15:00.540Z,13.55
2023-04-14T03:17:29.912Z,12.73
2023-04-14T03:19:57.971Z,11.32
2023-04-14T03:22:28.241Z,11.88
2023-04-14T03:24:58.870Z,14.68
2023-04-14T03:27:30.718Z,13.30
2023-04-14T03:30:03.940Z,15.75
2023-04-14T03:32:35.869Z,10.95
2023-04-14T03:35:04.921Z,10.38
2023-04-14T03:37:36.856Z,11.30
2023-04-14T03:40:11.254Z,14.13
2023-04-14T03:42:44.604Z,11.23
2023-04-14T03:45:13.645Z,10.32
2023-04-14T03:47:41.486Z,13.60
2023-04-14T03:50:11.707Z,11.77
2023-04-14T03:52:41.359Z,13.27
2023-04-14T03:55:13.609Z,16.10
2023-04-14T03:57:43.865Z,11.32
2023-04-14T04:00:13.946Z,13.05
2023-04-14T04:02:43.921Z,10.32
2023-04-14T04:05:12.209Z,12.88
2023-04-14T04:07:41.424Z,13.50
2023-04-14T04:10:13.759Z,13.23
2023-04-14T04:12:44.089Z,10.52
2023-04-14T04:15:12.670Z,12.98
2023-04-14T04:17:42.024Z,11.63
2023-04-14T04:20:15.382Z,11.68
2023-04-14T04:22:46.185Z,13.32
2023-04-14T04:25:16.199Z,11.55
2023-04-14T04:27:44.334Z,13.88
2023-04-14T04:30:14.221Z,13.20
2023-04-14T04:32:42.046Z,13.95
2023-04-14T04:35:11.512Z,13.07
2023-04-14T04:37:39.554Z,15.68
2023-04-14T04:40:08.685Z,13.90
2023-04-14T04:42:41.965Z,14.02
2023-04-14T04:45:11.153Z,15.05
2023-04-14T04:47:39.107Z,14.57
2023-04-14T04:50:07.706Z,17.33
2023-04-14T04:52:35.555Z,16.55
2023-04-14T04:55:03.287Z,19.63
2023-04-14T04:57:31.527Z,23.05
2023-04-14T05:00:01.070Z,15.52
2023-04-14T05:02:29.338Z,16.77
2023-04-14T05:04:57.485Z,15.73
2023-04-14T05:07:25.257Z,15.30
2023-04-14T05:09:53.074Z,15.88
2023-04-14T05:12:20.829Z,15.48
2023-04-14T05:14:48.594Z,13.93
2023-04-14T05:17:17.763Z,21.50
2023-04-14T05:19:46.289Z,21.33
2023-04-14T05:22:14.079Z,18.52
2023-04-14T05:24:41.973Z,18.08
2023-04-14T05:27:14.610Z,15.52
2023-04-14T05:29:42.765Z,14.35
2023-04-14T05:32:11.658Z,21.10
2023-04-14T05:34:41.162Z,15.77
2023-04-14T05:37:08.906Z,16.52
2023-04-14T05:39:36.815Z,16.42
2023-04-14T05:42:04.632Z,17.13
2023-04-14T05:44:32.479Z,13.35
2023-04-14T05:47:00.410Z,18.60
2023-04-14T05:49:28.451Z,19.00
2023-04-14T05:51:58.237Z,15.32
2023-04-14T05:54:25.988Z,17.27
2023-04-14T05:56:53.821Z,15.95
2023-04-14T05:59:21.660Z,16.63
2023-04-14T06:01:49.503Z,19.65
2023-04-14T06:04:17.430Z,21.80
2023-04-14T06:06:46.704Z,21.40
2023-04-14T06:09:16.794Z,20.10
2023-04-14T06:11:44.512Z,16.42
2023-04-14T06:14:12.392Z,20.23
2023-04-14T06:16:40.176Z,15.60
2023-04-14T06:19:08.032Z,16.17
2023-04-14T06:21:35.829Z,19.73
2023-04-14T06:24:03.576Z,18.75
2023-04-14T06:26:33.004Z,16.90
2023-04-14T06:29:01.397Z,18.15
2023-04-14T06:31:29.322Z,17.98
2023-04-14T06:33:57.179Z,13.10
2023-04-14T06:36:24.950Z,19.38
2023-04-14T06:38:53.263Z,16.15
2023-04-14T06:41:21.070Z,17.48
2023-04-14T06:43:50.450Z,16.55
2023-04-14T06:46:18.369Z,16.83
2023-04-14T06:48:46.265Z,15.55
2023-04-14T06:51:14.401Z,15.65
2023-04-14T06:53:42.166Z,13.75
2023-04-14T06:56:10.130Z,22.88
2023-04-14T06:58:38.171Z,16.52
2023-04-14T07:01:07.453Z,22.20
2023-04-14T07:03:35.635Z,19.00
2023-04-14T07:06:04.475Z,17.58
2023-04-14T07:08:34.863Z,19.23
2023-04-14T07:11:04.488Z,18.35
2023-04-14T07:13:32.544Z,15.80
2023-04-14T07:16:02.271Z,16.65
2023-04-14T07:18:32.786Z,14.68
2023-04-14T07:21:01.066Z,14.68
2023-04-14T07:23:29.394Z,16.95
2023-04-14T07:25:59.230Z,17.17
2023-04-14T07:28:28.588Z,21.67
2023-04-14T07:30:56.805Z,22.33
2023-04-14T07:33:26.984Z,16.42
2023-04-14T07:36:03.621Z,18.73
2023-04-14T07:38:32.265Z,18.17
2023-04-14T07:41:01.268Z,19.33
2023-04-14T07:43:34.776Z,21.38
2023-04-14T07:46:04.492Z,21.33
2023-04-14T07:48:32.714Z,25.05
2023-04-14T07:51:01.879Z,25.13
2023-04-14T07:53:31.042Z,25.50
2023-04-14T07:56:01.821Z,26.40
2023-04-14T07:58:30.028Z,24.23
2023-04-14T08:00:58.879Z,29.58
2023-04-14T08:03:26.965Z,27.88
2023-04-14T08:05:55.015Z,24.08
2023-04-14T08:08:24.428Z,25.63
2023-04-14T08:10:54.630Z,25.05
2023-04-14T08:13:22.559Z,39.70
2023-04-14T08:15:50.706Z,30.23
2023-04-14T08:18:18.953Z,27.65
2023-04-14T08:20:46.913Z,25.27
2023-04-14T08:23:14.821Z,20.45
2023-04-14T08:25:44.389Z,17.60
2023-04-14T08:28:12.472Z,17.15
2023-04-14T08:30:40.343Z,14.15
2023-04-14T08:33:08.367Z,13.07
2023-04-14T08:35:42.124Z,14.48
2023-04-14T08:38:11.240Z,11.55
2023-04-14T08:40:40.835Z,11.57
2023-04-14T08:43:13.178Z,11.80
2023-04-14T08:45:43.237Z,8.35
2023-04-14T08:48:12.997Z,8.18
2023-04-14T08:50:50.563Z,10.75
2023-04-14T08:53:24.066Z,10.10
2023-04-14T08:55:57.518Z,9.70
2023-04-14T08:58:27.614Z,8.25
2023-04-14T09:00:55.786Z,7.88
2023-04-14T09:03:24.977Z,11.60
2023-04-14T09:05:54.171Z,9.40
2023-04-14T09:08:22.241Z,5.93
2023-04-14T09:10:51.275Z,10.63
2023-04-14T09:13:23.094Z,7.50
2023-04-14T09:15:52.467Z,8.10
2023-04-14T09:18:20.415Z,5.15
2023-04-14T09:21:29.968Z,11.70
2023-04-14T09:23:36.865Z,10.25
2023-04-14T09:26:09.334Z,6.22
2023-04-14T09:31:06.842Z,7.30
2023-04-14T09:33:39.520Z,8.68
2023-04-14T09:36:07.458Z,10.10
2023-04-14T09:38:37.972Z,5.55
2023-04-14T09:41:07.705Z,6.63
2023-04-14T09:43:36.864Z,8.18
2023-04-14T09:46:09.576Z,8.27
2023-04-14T09:48:39.704Z,8.65
2023-04-14T09:51:10.017Z,7.63
2023-04-14T09:53:40.278Z,6.60
2023-04-14T09:56:10.631Z,12.05
2023-04-14T09:58:39.983Z,7.93
2023-04-14T10:01:13.702Z,9.48
2023-04-14T10:03:42.892Z,8.00
2023-04-14T10:06:16.198Z,5.53
2023-04-14T10:08:46.369Z,9.02
2023-04-14T10:11:19.964Z,5.25
2023-04-14T10:13:49.451Z,8.35
2023-04-14T10:16:19.243Z,5.45
2023-04-14T10:18:47.733Z,10.95
2023-04-14T10:21:17.390Z,6.35
2023-04-14T10:23:47.315Z,7.70
2023-04-14T10:26:16.443Z,6.43
2023-04-14T10:28:46.509Z,7.85
2023-04-14T10:31:20.351Z,5.70
2023-04-14T10:33:49.782Z,8.15
2023-04-14T10:36:25.865Z,5.53
2023-04-14T10:39:02.054Z,5.93
2023-04-14T10:41:45.877Z,5.25
2023-04-14T10:44:24.172Z,8.85
2023-04-14T10:46:54.053Z,6.95
2023-04-14T10:49:26.588Z,7.15
2023-04-14T10:54:21.965Z,6.18
2023-04-14T10:57:12.583Z,7.75
2023-04-14T10:59:44.015Z,5.82
2023-04-14T11:02:25.460Z,5.78
2023-04-14T11:05:04.233Z,8.60
2023-04-14T11:07:38.119Z,3.53
2023-04-14T11:10:27.594Z,4.88
2023-04-14T11:13:02.605Z,7.43
2023-04-14T11:16:03.554Z,5.03
2023-04-14T11:18:37.179Z,7.32
2023-04-14T11:21:07.754Z,7.25
2023-04-14T11:23:36.975Z,6.65
2023-04-14T11:26:07.328Z,7.40
2023-04-14T11:28:37.185Z,4.68
2023-04-14T11:31:06.824Z,5.70
2023-04-14T11:33:37.149Z,4.78
2023-04-14T11:36:08.003Z,8.48
2023-04-14T11:38:40.250Z,4.80
2023-04-14T11:41:08.250Z,4.22
2023-04-14T11:43:36.554Z,3.88
2023-04-14T11:46:08.116Z,5.65
2023-04-14T11:48:36.974Z,6.60
2023-04-14T11:51:06.793Z,5.55
2023-04-14T11:53:34.764Z,6.03
2023-04-14T11:56:02.779Z,4.80
2023-04-14T11:58:30.944Z,5.78
2023-04-14T12:00:59.028Z,5.30
2023-04-14T12:03:30.815Z,3.13
2023-04-14T12:06:00.046Z,3.97
2023-04-14T12:08:32.902Z,2.50
2023-04-14T12:11:13.651Z,6.15
2023-04-14T12:13:42.325Z,5.30
2023-04-14T12:16:10.683Z,5.32
2023-04-14T12:18:39.541Z,4.15
2023-04-14T12:21:10.848Z,4.18
2023-04-14T12:23:41.800Z,3.05
2023-04-14T12:26:11.900Z,3.10
2023-04-14T12:28:41.674Z,4.30
2023-04-14T12:31:10.460Z,4.65
2023-04-14T12:33:38.491Z,5.07
2023-04-14T12:36:08.025Z,3.55
2023-04-14T12:38:35.914Z,4.05
2023-04-14T12:41:05.401Z,4.28
2023-04-14T12:43:35.567Z,3.00
2023-04-14T12:46:04.340Z,5.80
2023-04-14T12:48:44.371Z,3.95
2023-04-14T12:51:14.001Z,5.38
2023-04-14T12:53:42.788Z,4.53
2023-04-14T12:56:14.148Z,3.78
2023-04-14T12:58:43.909Z,3.63
2023-04-14T13:01:12.954Z,3.28
2023-04-14T13:03:43.188Z,7.05
2023-04-14T13:06:12.660Z,5.85
2023-04-14T13:08:44.702Z,4.80
2023-04-14T13:11:14.665Z,3.92
2023-04-14T13:13:44.428Z,3.67
2023-04-14T13:16:15.829Z,4.07
2023-04-14T13:18:45.302Z,4.32
2023-04-14T13:21:13.463Z,2.60
2023-04-14T13:23:41.661Z,3.28
2023-04-14T13:26:09.690Z,3.35
2023-04-14T13:28:39.279Z,3.30
2023-04-14T13:31:07.250Z,2.33
2023-04-14T13:33:35.166Z,4.57
2023-04-14T13:36:03.452Z,2.47
2023-04-14T13:38:31.791Z,3.00
2023-04-14T13:40:59.647Z,3.28
2023-04-14T13:43:27.815Z,4.05
2023-04-14T13:45:59.188Z,4.15
2023-04-14T13:48:27.217Z,4.68
2023-04-14T13:50:56.009Z,5.07
2023-04-14T13:53:23.897Z,5.30
2023-04-14T13:55:51.786Z,3.75
2023-04-14T13:58:19.549Z,3.38
2023-04-14T14:00:47.345Z,3.35
2023-04-14T14:03:16.498Z,3.17
2023-04-14T14:05:44.549Z,3.15
2023-04-14T14:08:12.291Z,4.13
2023-04-14T14:10:58.270Z,3.35
2023-04-14T14:13:25.980Z,5.22
2023-04-14T14:15:53.874Z,4.82
2023-04-14T14:18:23.944Z,4.10
2023-04-14T14:20:52.359Z,4.22
2023-04-14T14:23:20.187Z,3.50
2023-04-14T14:25:47.951Z,4.35
2023-04-14T14:28:15.756Z,4.45
2023-04-14T14:30:43.532Z,3.40
2023-04-14T14:33:11.451Z,11.25
2023-04-14T14:35:40.709Z,5.80
2023-04-14T14:38:08.423Z,5.00
2023-04-14T14:40:36.438Z,5.40
2023-04-14T14:43:04.226Z,4.18
2023-04-14T14:45:32.823Z,4.80
2023-04-14T14:48:01.332Z,3.05
2023-04-14T14:50:29.156Z,3.58
2023-04-14T14:52:58.251Z,3.85
2023-04-14T14:55:27.167Z,2.05
2023-04-14T14:57:54.980Z,3.45
2023-04-14T15:00:22.716Z,3.45
2023-04-14T15:02:50.882Z,3.25
2023-04-14T15:05:19.116Z,4.78
2023-04-14T15:07:46.919Z,3.03
2023-04-14T15:10:16.273Z,4.18
2023-04-14T15:12:44.117Z,2.65
2023-04-14T15:15:13.214Z,2.00
2023-04-14T15:17:41.093Z,5.85
2023-04-14T15:20:09.941Z,3.22
2023-04-14T15:22:37.882Z,5.00
2023-04-14T15:25:07.065Z,3.00
2023-04-14T15:27:36.514Z,3.28
2023-04-14T15:30:04.538Z,2.35
2023-04-14T15:32:32.597Z,1.88
2023-04-14T15:35:00.424Z,3.90
2023-04-14T15:37:28.205Z,3.85
2023-04-14T15:39:56.789Z,4.63
2023-04-14T15:42:24.702Z,4.50
2023-04-14T15:44:54.012Z,2.22
2023-04-14T15:47:21.956Z,3.60
2023-04-14T15:49:49.927Z,3.38
2023-04-14T15:52:21.715Z,4.60
2023-04-14T15:54:49.550Z,7.65
2023-04-14T15:57:17.819Z,2.35
2023-04-14T15:59:45.830Z,4.57
2023-04-14T16:02:15.111Z,3.55
2023-04-14T16:04:43.095Z,3.72
2023-04-14T16:07:11.261Z,3.03
2023-04-14T16:09:40.965Z,2.42
2023-04-14T16:12:08.860Z,4.15
2023-04-14T16:14:37.657Z,3.45
2023-04-14T16:17:05.494Z,3.90
2023-04-14T16:19:35.681Z,7.20
2023-04-14T16:22:03.806Z,5.38
2023-04-14T16:24:31.772Z,5.10
2023-04-14T16:26:59.861Z,5.75
2023-04-14T16:29:28.729Z,4.65
2023-04-14T16:31:56.639Z,4.60
2023-04-14T16:34:24.440Z,5.18
2023-04-14T16:36:54.116Z,7.18
2023-04-14T16:39:22.346Z,4.80
2023-04-14T16:41:50.104Z,7.55
2023-04-14T16:44:17.932Z,5.57
2023-04-14T16:46:46.301Z,5.22
2023-04-14T16:49:14.769Z,6.05
2023-04-14T16:51:43.005Z,5.38
2023-04-14T16:54:12.232Z,4.68
2023-04-14T16:56:40.135Z,6.32
2023-04-14T16:59:09.060Z,5.28
2023-04-14T17:01:36.919Z,4.57
2023-04-14T17:04:05.571Z,5.78
2023-04-14T17:06:34.041Z,4.57
2023-04-14T17:09:02.271Z,6.90
2023-04-14T17:11:31.415Z,5.75
2023-04-14T17:13:59.437Z,4.60
2023-04-14T17:16:27.511Z,6.43
2023-04-14T17:18:57.325Z,5.60
2023-04-14T17:21:25.621Z,5.03
2023-04-14T17:23:54.573Z,3.53
2023-04-14T17:26:23.515Z,5.15
2023-04-14T17:28:52.883Z,6.80
2023-04-14T17:31:20.956Z,6.78
2023-04-14T17:33:48.810Z,8.25
2023-04-14T17:36:17.573Z,5.88
2023-04-14T17:38:45.899Z,8.23
2023-04-14T17:41:13.997Z,4.85
2023-04-14T17:43:41.933Z,6.25
2023-04-14T17:46:11.823Z,9.80
2023-04-14T17:48:40.405Z,8.00
2023-04-14T17:51:08.331Z,6.70
2023-04-14T17:53:36.676Z,6.35
2023-04-14T17:56:04.720Z,6.40
2023-04-14T17:58:34.547Z,7.93
2023-04-14T18:01:02.353Z,6.53
2023-04-14T18:03:31.529Z,5.70
2023-04-14T18:05:59.287Z,4.13
2023-04-14T18:08:27.065Z,9.52
2023-04-14T18:10:54.812Z,5.78
2023-04-14T18:13:22.759Z,4.90
2023-04-14T18:15:50.791Z,6.65
2023-04-14T18:18:18.629Z,5.22
2023-04-14T18:20:50.371Z,6.97
2023-04-14T18:23:19.029Z,10.32
2023-04-14T18:28:17.564Z,9.77
2023-04-14T18:30:45.534Z,6.40
2023-04-14T18:33:13.261Z,10.20
2023-04-14T18:35:40.968Z,7.90
2023-04-14T18:38:10.110Z,7.50
2023-04-14T18:40:38.814Z,6.75
2023-04-14T18:43:06.800Z,9.10
2023-04-14T18:45:37.577Z,26.30
2023-04-14T18:48:06.368Z,9.13
2023-04-14T18:50:34.397Z,8.82
2023-04-14T18:53:02.189Z,10.10
2023-04-14T18:55:39.591Z,10.77
2023-04-14T18:58:13.478Z,10.32
2023-04-14T19:00:43.100Z,12.75
2023-04-14T19:03:11.071Z,10.35
2023-04-14T19:05:39.435Z,7.88
2023-04-14T19:08:07.754Z,11.48
2023-04-14T19:10:37.309Z,7.68
2023-04-14T19:13:05.064Z,8.32
2023-04-14T19:15:33.113Z,8.32
2023-04-14T19:18:01.072Z,9.52
2023-04-14T19:20:28.999Z,7.57
2023-04-14T19:22:56.734Z,7.22
2023-04-14T19:25:24.907Z,8.10
2023-04-14T19:27:54.090Z,20.75
2023-04-14T19:30:21.935Z,8.55
2023-04-14T19:32:50.578Z,8.50
2023-04-14T19:35:18.594Z,7.45
2023-04-14T19:37:46.352Z,6.28
2023-04-14T19:40:14.468Z,9.80
2023-04-14T19:42:42.246Z,8.93
2023-04-14T19:45:12.237Z,11.88
2023-04-14T19:47:41.299Z,10.32
2023-04-14T19:50:09.763Z,9.13
2023-04-14T19:52:37.910Z,9.13
2023-04-14T19:55:06.473Z,8.90
2023-04-14T19:57:34.237Z,10.27
2023-04-14T20:00:01.967Z,8.00
2023-04-14T20:02:31.231Z,8.75
2023-04-14T20:04:59.016Z,7.20
2023-04-14T20:07:26.696Z,8.52
2023-04-14T20:09:54.667Z,9.50
2023-04-14T20:12:22.920Z,9.25
2023-04-14T20:14:50.610Z,8.32
2023-04-14T20:17:18.373Z,8.63
2023-04-14T20:19:47.726Z,8.77
2023-04-14T20:22:15.623Z,11.05
2023-04-14T20:24:43.715Z,10.68
2023-04-14T20:27:11.453Z,9.93
2023-04-14T20:29:39.241Z,9.65
2023-04-14T20:32:07.711Z,9.65
2023-04-14T20:34:35.589Z,10.40
2023-04-14T20:37:04.710Z,9.18
2023-04-14T20:39:33.230Z,10.75
2023-04-14T20:42:01.474Z,9.63
2023-04-14T20:44:29.173Z,11.27
2023-04-14T20:46:57.011Z,11.07
2023-04-14T20:49:25.134Z,10.05
2023-04-14T20:51:52.950Z,19.33
2023-04-14T20:54:22.100Z,12.30
2023-04-14T20:56:50.410Z,9.32
2023-04-14T20:59:18.268Z,12.18
2023-04-14T21:01:47.009Z,13.02
2023-04-14T21:04:15.076Z,10.52
2023-04-14T21:06:42.941Z,11.52
2023-04-14T21:09:10.911Z,11.07
2023-04-14T21:11:39.968Z,10.27
2023-04-14T21:15:28.765Z,10.15
2023-04-14T21:16:56.850Z,8.68
2023-04-14T21:19:27.320Z,10.90
2023-04-14T21:21:55.583Z,9.52
2023-04-14T21:24:23.927Z,9.23
2023-04-14T21:26:53.186Z,10.13
2023-04-14T21:29:20.928Z,10.25
2023-04-14T21:31:48.643Z,10.88
2023-04-14T21:34:16.850Z,12.48
2023-04-14T21:36:45.454Z,13.43
2023-04-14T21:39:13.781Z,12.65
2023-04-14T21:41:41.490Z,9.63
2023-04-14T21:44:10.641Z,8.13
2023-04-14T21:46:38.614Z,10.02
2023-04-14T21:49:06.726Z,11.07
2023-04-14T21:51:34.493Z,11.32
2023-04-14T21:54:02.236Z,11.75
2023-04-14T21:56:29.939Z,8.35
2023-04-14T21:58:57.644Z,9.77
2023-04-14T22:01:27.530Z,8.70
2023-04-14T22:03:56.161Z,9.82
2023-04-14T22:06:24.558Z,8.65
2023-04-14T22:08:52.752Z,9.80
2023-04-14T22:11:20.760Z,8.95
2023-04-14T22:13:48.961Z,8.88
2023-04-14T22:16:17.452Z,10.07
2023-04-14T22:18:46.627Z,7.88
2023-04-14T22:21:14.448Z,10.00
2023-04-14T22:23:43.837Z,8.18
2023-04-14T22:26:12.544Z,10.25
2023-04-14T22:28:40.592Z,9.63
2023-04-14T22:31:09.631Z,10.95
2023-04-14T22:33:37.600Z,10.10
2023-04-14T22:36:07.549Z,9.35
2023-04-14T22:38:35.457Z,11.85
2023-04-14T22:41:03.341Z,8.75
2023-04-14T22:43:31.595Z,8.65
2023-04-14T22:45:59.491Z,9.15
2023-04-14T22:48:27.278Z,9.88
2023-04-14T22:50:54.991Z,11.55
2023-04-14T22:53:24.084Z,9.40
2023-04-14T22:55:51.975Z,12.18
2023-04-14T22:58:21.838Z,11.45
2023-04-14T23:00:49.575Z,8.80
2023-04-14T23:03:17.637Z,9.50
2023-04-14T23:05:45.642Z,9.65
2023-04-14T23:08:13.343Z,10.00
2023-04-14T23:10:42.522Z,8.90
2023-04-14T23:13:10.280Z,9.95
2023-04-14T23:15:38.218Z,9.70
2023-04-14T23:18:06.486Z,11.18
2023-04-14T23:20:34.289Z,8.98
2023-04-14T23:23:02.657Z,11.70
2023-04-14T23:25:30.486Z,11.23
2023-04-14T23:27:59.754Z,11.07
2023-04-14T23:30:27.532Z,10.93
2023-04-14T23:32:55.377Z,10.75
2023-04-14T23:35:23.220Z,10.80
2023-04-14T23:37:51.127Z,9.85
2023-04-14T23:40:18.959Z,9.77
2023-04-14T23:42:49.417Z,10.07
2023-04-14T23:45:18.602Z,10.50
2023-04-14T23:47:46.414Z,11.75
2023-04-14T23:50:14.184Z,11.95
2023-04-14T23:52:42.659Z,10.70
2023-04-14T23:55:11.127Z,10.43
2023-04-14T23:57:39.049Z,9.00
